Riparius, New York
Current Conditions -  °F | °C
As of 8:53 AM on Thursday 27 Nov 2014 (Local Time) from KGFL Reporting Station
Overcast Overcast  
Wind Chill: -7°   Ceiling: 3200
Heat Index: -1°   Visibility: 10mi
Dew Point: -6°   Wind: 13mph
Humidity: 72%   Direction: 20°NNE
Pressure: 30"   Gusts: NA
Location:  43.66°N, 73.9°W
Report Text: KGFL 271353Z AUTO 02011KT 10SM FEW022 OVC032 M01/M06 A3000 RMK AO2 SLP166 T10111056
Loading
Personal Weather Stations






























Interactive Weather Map New forecast layout! Learn more

10-Day Weather Forecast

Advertisements
Track Severe Weather on mobile